.
WxDataArchive / Data Records for 2010-12-27
2010-12-26 December 2010 2010-12-28

Data Records for Monday, 27 December 2010

Time	Temp	Chill	HIndex	Humid	Dewpt	 Wind 	HiWind	WindDir	Rain 	Barom 
-----	----	-----	------	-----	-----	------	------	-------	-----	----- 
00:00	15.4	15.4	15.4	81	10.6	0	0	---	0.00	30.202 
00:05	15.4	15.4	15.4	81	10.6	0	0	---	0.00	30.202 
00:10	15.2	15.2	15.2	82	10.7	0	0	---	0.00	30.202 
00:15	15.2	15.2	15.2	82	10.7	0	0	---	0.00	30.203 
00:20	15.2	15.2	15.2	82	10.7	0	0	---	0.00	30.203 
00:25	15.2	15.2	15.2	82	10.7	0	0	---	0.00	30.203 
00:30	15.2	15.2	15.2	83	11.0	0	0	---	0.00	30.205 
00:35	15.2	15.2	15.2	83	11.0	0	0	---	0.00	30.205 
00:40	15.4	15.4	15.4	83	11.2	0	1	292	0.00	30.205 
00:45	15.7	15.7	15.7	83	11.5	0	1	292	0.00	30.204 
00:50	15.9	15.9	15.9	83	11.7	0	2	292	0.00	30.204 
00:55	16.2	16.2	16.2	83	12.0	0	1	292	0.00	30.204 
01:00	16.2	16.2	16.2	82	11.7	0	1	292	0.00	30.203 
01:05	16.4	16.4	16.4	81	11.6	0	1	292	0.00	30.203 
01:10	16.4	16.4	16.4	81	11.6	0	1	292	0.00	30.203 
01:15	16.5	16.5	16.5	81	11.7	0	1	292	0.00	30.201 
01:20	16.5	16.5	16.5	80	11.4	0	1	292	0.00	30.201 
01:25	16.4	16.4	16.4	80	11.3	0	1	292	0.00	30.201 
01:30	16.4	16.4	16.4	80	11.3	0	1	292	0.00	30.203 
01:35	16.4	16.4	16.4	80	11.3	0	1	292	0.00	30.203 
01:40	16.4	16.4	16.4	79	11.0	0	1	292	0.00	30.203 
01:45	16.4	16.4	16.4	79	11.0	0	0	---	0.00	30.203 
01:50	16.2	16.2	16.2	79	10.9	0	1	292	0.00	30.203 
01:55	16.2	16.2	16.2	79	10.9	0	1	292	0.00	30.203 
02:00	16.4	16.4	16.4	78	10.8	0	1	292	0.00	30.205 
02:05	16.4	16.4	16.4	78	10.8	0	2	292	0.00	30.205 
02:10	16.4	16.4	16.4	77	10.5	0	1	338	0.00	30.205 
02:15	16.4	16.4	16.4	77	10.5	0	2	338	0.00	30.207 
02:20	16.4	16.4	16.4	77	10.5	0	2	338	0.00	30.207 
02:25	16.4	16.4	16.4	77	10.5	0	1	338	0.00	30.207 
02:30	16.4	16.4	16.4	76	10.2	0	2	338	0.00	30.215 
02:35	16.4	16.4	16.4	76	10.2	0	2	338	0.00	30.215 
02:40	16.5	16.5	16.5	76	10.3	0	1	338	0.00	30.215 
02:45	16.5	16.5	16.5	76	10.3	0	1	338	0.00	30.216 
02:50	16.7	16.7	16.7	76	10.5	0	2	338	0.00	30.216 
02:55	16.7	16.7	16.7	75	10.2	0	2	90	0.00	30.216 
03:00	16.7	16.7	16.7	75	10.2	0	1	68	0.00	30.219 
03:05	16.9	16.9	16.9	75	10.4	0	1	68	0.00	30.219 
03:10	17.0	17.0	17.0	75	10.5	0	2	248	0.00	30.219 
03:15	17.0	17.0	17.0	75	10.5	0	2	248	0.00	30.231 
03:20	17.2	17.2	17.2	75	10.7	0	1	248	0.00	30.231 
03:25	17.2	17.2	17.2	75	10.7	0	1	248	0.00	30.231 
03:30	17.2	17.2	17.2	75	10.7	0	2	248	0.00	30.232 
03:35	17.2	17.2	17.2	75	10.7	0	0	---	0.00	30.232 
03:40	17.2	17.2	17.2	75	10.7	0	1	248	0.00	30.232 
03:45	17.2	17.2	17.2	75	10.7	0	0	---	0.00	30.234 
03:50	17.2	17.2	17.2	75	10.7	0	0	---	0.00	30.234 
03:55	17.2	17.2	17.2	75	10.7	0	0	---	0.00	30.234 
04:00	17.2	17.2	17.2	75	10.7	0	0	---	0.00	30.233 
04:05	17.3	17.3	17.3	75	10.8	0	0	---	0.00	30.233 
04:10	17.3	17.3	17.3	75	10.8	0	0	---	0.00	30.233 
04:15	17.2	17.2	17.2	75	10.7	0	0	---	0.00	30.234 
04:20	17.2	17.2	17.2	75	10.7	0	0	---	0.00	30.234 
04:25	17.2	17.2	17.2	75	10.7	0	0	---	0.00	30.234 
04:30	17.0	17.0	17.0	75	10.5	0	0	---	0.00	30.232 
04:35	16.7	16.7	16.7	75	10.2	0	0	---	0.00	30.232 
04:40	16.5	16.5	16.5	75	10.0	0	0	---	0.00	30.232 
04:45	16.2	16.2	16.2	75	9.7	0	0	---	0.00	30.233 
04:50	16.2	16.2	16.2	76	10.0	0	1	248	0.00	30.233 
04:55	16.7	16.7	16.7	76	10.5	0	2	248	0.00	30.233 
05:00	17.2	17.2	17.2	76	11.0	0	2	248	0.00	30.229 
05:05	17.7	17.7	17.7	74	10.8	0	2	248	0.00	30.229 
05:10	18.0	18.0	18.0	73	10.8	0	1	248	0.00	30.229 
05:15	18.3	18.3	18.3	73	11.1	0	2	248	0.00	30.225 
05:20	18.3	18.3	18.3	72	10.8	0	1	248	0.00	30.225 
05:25	18.4	18.4	18.4	72	10.9	0	0	---	0.00	30.225 
05:30	18.3	18.3	18.3	72	10.8	0	0	---	0.00	30.228 
05:35	18.3	18.3	18.3	72	10.8	0	0	---	0.00	30.228 
05:40	18.1	18.1	18.1	72	10.6	0	0	---	0.00	30.228 
05:45	18.3	18.3	18.3	72	10.8	0	2	248	0.00	30.233 
05:50	18.4	18.4	18.4	72	10.9	0	0	---	0.00	30.233 
05:55	18.3	18.3	18.3	72	10.8	0	0	---	0.00	30.233 
06:00	18.4	18.4	18.4	72	10.9	0	4	0	0.00	30.236 
06:05	18.6	18.6	18.6	73	11.4	0	2	0	0.00	30.236 
06:10	18.8	18.8	18.8	72	11.3	0	2	338	0.00	30.236 
06:15	18.9	18.9	18.9	73	11.7	0	2	338	0.00	30.232 
06:20	19.1	19.1	19.1	72	11.6	0	4	292	0.00	30.232 
06:25	19.2	19.2	19.2	72	11.7	0	2	292	0.00	30.232 
06:30	19.4	19.4	19.4	72	11.9	1	2	292	0.00	30.235 
06:35	19.5	19.5	19.5	72	12.0	0	4	22	0.00	30.235 
06:40	19.5	19.5	19.5	72	12.0	0	2	22	0.00	30.235 
06:45	19.4	19.4	19.4	72	11.9	0	1	22	0.00	30.240 
06:50	19.4	19.4	19.4	72	11.9	0	2	270	0.00	30.240 
06:55	19.2	19.2	19.2	73	12.0	0	1	270	0.00	30.240 
07:00	19.1	19.1	19.1	73	11.9	0	0	---	0.00	30.245 
07:05	18.9	18.9	18.9	73	11.7	0	0	---	0.00	30.245 
07:10	18.8	18.8	18.8	73	11.6	0	0	---	0.00	30.245 
07:15	18.6	18.6	18.6	73	11.4	0	1	270	0.00	30.252 
07:20	18.6	18.6	18.6	74	11.7	0	1	270	0.00	30.252 
07:25	18.3	18.3	18.3	74	11.4	0	0	---	0.00	30.252 
07:30	18.1	18.1	18.1	74	11.2	0	0	---	0.00	30.258 
07:35	18.0	18.0	18.0	75	11.4	0	0	---	0.00	30.258 
07:40	17.8	17.8	17.8	75	11.2	0	1	270	0.00	30.258 
07:45	17.7	17.7	17.7	75	11.1	0	0	---	0.00	30.261 
07:50	17.3	17.3	17.3	76	11.1	0	1	270	0.00	30.261 
07:55	17.2	17.2	17.2	76	11.0	0	1	270	0.00	30.261 
08:00	17.0	17.0	17.0	77	11.1	0	1	270	0.00	30.268 
08:05	16.9	16.9	16.9	77	11.0	0	1	270	0.00	30.268 
08:10	16.9	16.9	16.9	77	11.0	0	1	270	0.00	30.268 
08:15	16.7	16.7	16.7	77	10.8	0	1	270	0.00	30.271 
08:20	16.5	16.5	16.5	77	10.6	0	1	270	0.00	30.271 
08:25	16.5	16.5	16.5	77	10.6	0	1	270	0.00	30.271 
08:30	16.4	16.4	16.4	77	10.5	0	0	---	0.00	30.269 
08:35	16.4	16.4	16.4	78	10.8	0	0	---	0.00	30.269 
08:40	16.4	16.4	16.4	78	10.8	0	1	270	0.00	30.269 
08:45	16.5	16.5	16.5	78	10.9	0	1	270	0.00	30.272 
08:50	16.5	16.5	16.5	78	10.9	0	1	270	0.00	30.272 
08:55	16.7	16.7	16.7	78	11.1	0	1	270	0.00	30.272 
09:00	16.9	16.9	16.9	78	11.3	0	2	270	0.00	30.272 
09:05	17.0	17.0	17.0	78	11.3	0	1	270	0.00	30.272 
09:10	17.2	17.2	17.2	78	11.5	0	1	270	0.00	30.272 
09:15	17.3	17.3	17.3	78	11.6	0	1	270	0.00	30.274 
09:20	17.5	17.5	17.5	78	11.8	0	1	270	0.00	30.274 
09:25	18.0	18.0	18.0	78	12.3	0	1	270	0.00	30.274 
09:30	18.3	18.3	18.3	77	12.3	0	3	270	0.00	30.278 
09:35	18.6	18.6	18.6	77	12.6	1	2	270	0.00	30.278 
09:40	18.8	18.8	18.8	76	12.5	1	2	270	0.00	30.278 
09:45	19.1	19.1	19.1	76	12.8	0	2	248	0.00	30.273 
09:50	19.4	19.4	19.4	76	13.1	1	2	248	0.00	30.273 
09:55	19.9	19.9	19.9	75	13.3	1	2	248	0.00	30.273 
10:00	20.2	20.2	20.2	75	13.6	1	2	248	0.00	30.277 
10:05	20.5	20.5	20.5	74	13.6	0	3	338	0.00	30.277 
10:10	20.8	20.8	20.8	73	13.5	1	2	338	0.00	30.277 
10:15	21.0	21.0	21.0	73	13.7	1	4	338	0.00	30.280 
10:20	21.1	21.1	21.1	73	13.8	0	3	338	0.00	30.280 
10:25	21.4	21.4	21.4	73	14.1	1	3	338	0.00	30.280 
10:30	21.9	21.9	21.9	72	14.3	1	2	248	0.00	30.279 
10:35	22.1	22.1	22.1	72	14.5	1	4	248	0.00	30.279 
10:40	22.4	22.4	22.4	71	14.4	1	3	315	0.00	30.279 
10:45	22.5	22.5	22.5	71	14.5	1	4	338	0.00	30.281 
10:50	22.9	22.9	22.9	70	14.6	1	3	338	0.00	30.281 
10:55	23.2	23.2	23.2	70	14.9	1	6	338	0.00	30.281 
11:00	23.5	23.5	23.5	69	14.9	1	2	315	0.00	30.282 
11:05	23.9	23.9	23.9	68	14.9	0	3	270	0.00	30.282 
11:10	24.4	24.4	24.4	68	15.4	0	2	270	0.00	30.282 
11:15	24.8	24.8	24.8	66	15.1	1	3	270	0.00	30.278 
11:20	25.4	25.4	25.4	65	15.3	0	2	338	0.00	30.278 
11:25	25.7	25.7	25.7	64	15.2	1	3	315	0.00	30.278 
11:30	25.8	25.8	25.8	64	15.3	1	3	315	0.00	30.276 
11:35	26.1	26.1	26.1	63	15.3	1	3	270	0.00	30.276 
11:40	26.4	26.4	26.4	62	15.2	1	3	270	0.00	30.276 
11:45	26.4	26.4	26.4	62	15.2	1	4	315	0.00	30.270 
11:50	26.4	26.4	26.4	62	15.2	1	3	270	0.00	30.270 
11:55	26.6	26.6	26.6	62	15.4	0	2	338	0.00	30.270 
12:00	26.7	26.7	26.7	62	15.5	1	2	338	0.00	30.265 
12:05	27.0	27.0	27.0	62	15.7	0	2	292	0.00	30.265 
12:10	27.2	27.2	27.2	62	15.9	1	3	315	0.00	30.265 
12:15	27.3	27.3	27.3	62	16.0	1	3	315	0.00	30.263 
12:20	27.5	27.5	27.5	61	15.8	1	2	315	0.00	30.263 
12:25	27.5	27.5	27.5	61	15.8	1	3	315	0.00	30.263 
12:30	27.5	27.5	27.5	61	15.8	2	4	315	0.00	30.260 
12:35	27.5	27.5	27.5	61	15.8	1	4	248	0.00	30.260 
12:40	27.5	27.5	27.5	62	16.2	1	3	248	0.00	30.260 
12:45	27.3	27.3	27.3	62	16.0	1	5	315	0.00	30.263 
12:50	27.5	27.5	27.5	62	16.2	1	3	315	0.00	30.263 
12:55	27.3	27.3	27.3	62	16.0	1	3	315	0.00	30.263 
13:00	27.3	27.3	27.3	62	16.0	2	4	248	0.00	30.259 
13:05	27.3	27.3	27.3	62	16.0	1	2	270	0.00	30.259 
13:10	27.5	27.5	27.5	63	16.6	1	4	270	0.00	30.259 
13:15	27.5	27.5	27.5	64	16.9	2	4	270	0.00	30.255 
13:20	27.3	27.3	27.3	63	16.4	2	4	270	0.00	30.255 
13:25	27.5	27.5	27.5	63	16.6	2	4	248	0.00	30.255 
13:30	27.5	27.5	27.5	63	16.6	2	4	270	0.00	30.249 
13:35	27.5	27.5	27.5	63	16.6	2	5	292	0.00	30.249 
13:40	27.5	27.5	27.5	63	16.6	1	4	270	0.00	30.249 
13:45	27.8	27.8	27.8	64	17.2	1	3	248	0.00	30.247 
13:50	27.9	27.9	27.9	63	17.0	1	3	338	0.00	30.247 
13:55	28.1	28.1	28.1	63	17.2	1	3	270	0.00	30.247 
14:00	28.1	28.1	28.1	63	17.2	1	3	0	0.00	30.246 
14:05	28.1	28.1	28.1	63	17.2	1	3	270	0.00	30.246 
14:10	28.1	28.1	28.1	64	17.5	2	4	270	0.00	30.246 
14:15	28.1	28.1	28.1	64	17.5	2	4	270	0.00	30.246 
14:20	27.9	27.9	27.9	64	17.3	2	4	270	0.00	30.246 
14:25	27.9	27.9	27.9	64	17.3	2	4	270	0.00	30.246 
14:30	27.9	27.9	27.9	65	17.7	2	4	270	0.00	30.245 
14:35	27.9	27.9	27.9	65	17.7	2	3	270	0.00	30.245 
14:40	27.9	27.9	27.9	65	17.7	2	4	270	0.00	30.245 
14:45	28.1	28.1	28.1	65	17.9	1	2	315	0.00	30.245 
14:50	28.2	28.2	28.2	65	18.0	1	3	315	0.00	30.245 
14:55	28.2	28.2	28.2	65	18.0	2	3	270	0.00	30.245 
15:00	28.2	28.2	28.2	65	18.0	2	4	248	0.00	30.248 
15:05	28.1	28.1	28.1	66	18.2	2	5	248	0.00	30.248 
15:10	27.9	27.9	27.9	67	18.4	2	5	270	0.00	30.248 
15:15	27.9	27.9	27.9	68	18.7	1	5	270	0.00	30.248 
15:20	27.9	27.9	27.9	68	18.7	2	4	270	0.00	30.248 
15:25	27.8	27.8	27.8	68	18.6	2	6	248	0.00	30.248 
15:30	27.6	27.6	27.6	68	18.4	2	4	270	0.00	30.255 
15:35	27.6	27.6	27.6	68	18.4	2	4	270	0.00	30.255 
15:40	27.6	27.6	27.6	69	18.8	2	5	270	0.00	30.255 
15:45	27.6	27.6	27.6	69	18.8	2	4	248	0.00	30.253 
15:50	27.6	27.6	27.6	69	18.8	1	3	248	0.00	30.253 
15:55	27.6	27.6	27.6	69	18.8	1	3	248	0.00	30.253 
16:00	27.8	27.8	27.8	69	19.0	1	2	338	0.00	30.252 
16:05	27.8	27.8	27.8	69	19.0	1	3	270	0.00	30.252 
16:10	27.8	27.8	27.8	70	19.3	1	3	338	0.00	30.252 
16:15	27.8	27.8	27.8	70	19.3	1	3	248	0.00	30.253 
16:20	27.8	27.8	27.8	70	19.3	2	4	248	0.00	30.253 
16:25	27.8	27.8	27.8	71	19.6	1	3	248	0.00	30.253 
16:30	27.8	27.8	27.8	71	19.6	1	3	248	0.00	30.257 
16:35	27.8	27.8	27.8	71	19.6	1	2	248	0.00	30.257 
16:40	27.8	27.8	27.8	71	19.6	1	3	248	0.00	30.257 
16:45	27.8	27.8	27.8	72	20.0	0	2	315	0.00	30.257 
16:50	27.8	27.8	27.8	72	20.0	1	2	315	0.00	30.257 
16:55	27.8	27.8	27.8	72	20.0	1	2	315	0.00	30.257 
17:00	27.6	27.6	27.6	72	19.8	1	3	225	0.00	30.259 
17:05	27.5	27.5	27.5	72	19.7	0	2	225	0.00	30.259 
17:10	27.3	27.3	27.3	72	19.5	0	2	225	0.00	30.259 
17:15	27.2	27.2	27.2	73	19.7	0	2	225	0.00	30.259 
17:20	27.0	27.0	27.0	73	19.5	0	1	225	0.00	30.259 
17:25	26.7	26.7	26.7	73	19.2	0	0	---	0.00	30.259 
17:30	26.6	26.6	26.6	73	19.1	0	1	225	0.00	30.254 
17:35	26.1	26.1	26.1	73	18.7	0	0	---	0.00	30.254 
17:40	26.0	26.0	26.0	74	18.9	0	1	225	0.00	30.254 
17:45	25.7	25.7	25.7	74	18.6	0	0	---	0.00	30.253 
17:50	25.4	25.4	25.4	75	18.6	0	0	---	0.00	30.253 
17:55	25.1	25.1	25.1	76	18.6	0	0	---	0.00	30.253 
18:00	24.8	24.8	24.8	76	18.3	0	0	---	0.00	30.252 
18:05	24.5	24.5	24.5	77	18.3	0	0	---	0.00	30.252 
18:10	24.2	24.2	24.2	77	18.1	0	0	---	0.00	30.252 
18:15	24.1	24.1	24.1	77	18.0	0	0	---	0.00	30.253 
18:20	23.8	23.8	23.8	78	18.0	0	0	---	0.00	30.253 
18:25	23.6	23.6	23.6	79	18.1	0	0	---	0.00	30.253 
18:30	23.5	23.5	23.5	80	18.3	0	0	---	0.00	30.251 
18:35	23.3	23.3	23.3	80	18.1	0	0	---	0.00	30.251 
18:40	23.2	23.2	23.2	81	18.3	0	0	---	0.00	30.251 
18:45	23.0	23.0	23.0	81	18.1	0	1	225	0.00	30.253 
18:50	23.0	23.0	23.0	81	18.1	0	0	---	0.00	30.253 
18:55	23.5	23.5	23.5	82	18.8	0	1	225	0.00	30.253 
19:00	24.2	24.2	24.2	83	19.8	2	5	248	0.00	30.258 
19:05	24.8	24.8	24.8	82	20.1	2	4	248	0.00	30.258 
19:10	25.0	25.0	25.0	81	20.0	1	3	248	0.00	30.258 
19:15	25.0	25.0	25.0	80	19.7	1	3	248	0.00	30.251 
19:20	24.8	24.8	24.8	78	18.9	1	6	248	0.00	30.251 
19:25	24.7	24.7	24.7	77	18.5	2	5	248	0.00	30.251 
19:30	24.4	24.4	24.4	77	18.2	2	6	248	0.00	30.258 
19:35	23.9	23.9	23.9	76	17.5	2	5	248	0.00	30.258 
19:40	23.6	23.6	23.6	76	17.2	2	5	248	0.00	30.258 
19:45	23.0	23.0	23.0	76	16.6	2	6	248	0.00	30.262 
19:50	22.5	22.5	22.5	76	16.1	3	7	248	0.00	30.262 
19:55	22.1	22.1	22.1	76	15.7	2	6	225	0.00	30.262 
20:00	21.4	21.4	21.4	76	15.0	3	9	248	0.00	30.265 
20:05	21.0	21.0	21.0	76	14.6	2	5	248	0.00	30.265 
20:10	20.5	20.5	20.5	77	14.5	1	5	248	0.00	30.265 
20:15	20.2	20.2	20.2	77	14.2	1	4	248	0.00	30.268 
20:20	20.0	20.0	20.0	77	14.0	2	5	248	0.00	30.268 
20:25	19.7	19.7	19.7	77	13.7	1	4	225	0.00	30.268 
20:30	19.5	19.5	19.5	78	13.8	2	7	248	0.00	30.268 
20:35	19.2	19.2	19.2	78	13.5	2	5	248	0.00	30.268 
20:40	18.9	18.9	18.9	78	13.2	2	5	248	0.00	30.268 
20:45	18.6	18.6	18.6	78	12.9	3	6	248	0.00	30.270 
20:50	18.4	18.4	18.4	79	13.0	2	9	270	0.00	30.270 
20:55	18.1	18.1	18.1	79	12.7	1	4	248	0.00	30.270 
21:00	17.8	17.8	17.8	79	12.4	1	3	248	0.00	30.273 
21:05	17.7	17.7	17.7	80	12.6	1	4	248	0.00	30.273 
21:10	17.3	17.3	17.3	80	12.2	2	5	248	0.00	30.273 
21:15	16.9	16.9	16.9	80	11.8	2	4	248	0.00	30.272 
21:20	16.5	16.5	16.5	81	11.7	1	3	248	0.00	30.272 
21:25	16.4	16.4	16.4	82	11.9	2	7	248	0.00	30.272 
21:30	16.2	16.2	16.2	83	12.0	2	4	248	0.00	30.272 
21:35	16.4	16.4	16.4	84	12.4	1	5	248	0.00	30.272 
21:40	16.4	16.4	16.4	85	12.7	1	7	248	0.00	30.272 
21:45	16.5	16.5	16.5	85	12.8	1	3	248	0.00	30.267 
21:50	16.5	16.5	16.5	86	13.1	1	4	248	0.00	30.267 
21:55	16.5	16.5	16.5	86	13.1	1	3	248	0.00	30.267 
22:00	16.7	16.7	16.7	86	13.3	1	3	225	0.00	30.269 
22:05	16.7	16.7	16.7	86	13.3	1	4	248	0.00	30.269 
22:10	16.7	16.7	16.7	86	13.3	1	4	248	0.00	30.269 
22:15	16.7	16.7	16.7	87	13.5	1	4	225	0.00	30.264 
22:20	16.7	16.7	16.7	87	13.5	2	4	248	0.00	30.264 
22:25	16.7	16.7	16.7	86	13.3	2	6	225	0.00	30.264 
22:30	16.5	16.5	16.5	86	13.1	2	5	248	0.00	30.262 
22:35	16.5	16.5	16.5	87	13.3	1	4	248	0.00	30.262 
22:40	16.5	16.5	16.5	87	13.3	1	3	248	0.00	30.262 
22:45	16.7	16.7	16.7	87	13.5	1	5	248	0.00	30.267 
22:50	16.7	16.7	16.7	87	13.5	1	2	225	0.00	30.267 
22:55	16.7	16.7	16.7	87	13.5	1	5	248	0.00	30.267 
23:00	16.7	16.7	16.7	87	13.5	1	3	248	0.00	30.268 
23:05	16.7	16.7	16.7	87	13.5	2	4	248	0.00	30.268 
23:10	16.5	16.5	16.5	87	13.3	3	9	270	0.00	30.268 
23:15	16.5	16.5	16.5	87	13.3	2	6	248	0.00	30.265 
23:20	16.5	16.5	16.5	87	13.3	1	3	248	0.00	30.265 
23:25	16.5	16.5	16.5	86	13.1	2	5	270	0.00	30.265 
23:30	16.5	16.5	16.5	86	13.1	2	5	248	0.00	30.259 
23:35	16.5	16.5	16.5	86	13.1	2	4	248	0.00	30.259 
23:40	16.5	16.5	16.5	86	13.1	1	5	248	0.00	30.259 
23:45	16.7	16.7	16.7	86	13.3	2	5	248	0.00	30.251 
23:50	16.5	16.5	16.5	86	13.1	3	10	248	0.00	30.251 
23:55	16.5	16.5	16.5	86	13.1	2	5	248	0.00	30.251 

CoCoRaHS
IN-AL-39
A2 Web Hosting
Creative Commons License
GoDaddy
search engine by freefind advanced

loaded 2018-11-20 02:46:27 • last modified 2010-11-18 10:43:29
Privacy PolicyDisclaimer
• wx.awcolley.com is powered by PmWiki v.2002016 •
• all content (unless otherwise noted) © 2018 A W Colley